sensor_id;sensor_type;location;lat;lon;timestamp;P1;durP1;ratioP1;P2;durP2;ratioP2
49858;SDS011;35756;52.346;13.622;2022-09-03T00:07:54;2.75;;;1.70;;
49858;SDS011;35756;52.346;13.622;2022-09-03T00:10:26;2.45;;;1.70;;
49858;SDS011;35756;52.346;13.622;2022-09-03T00:12:53;2.80;;;1.80;;
49858;SDS011;35756;52.346;13.622;2022-09-03T00:15:21;4.32;;;2.08;;
49858;SDS011;35756;52.346;13.622;2022-09-03T00:17:51;4.43;;;1.83;;
49858;SDS011;35756;52.346;13.622;2022-09-03T00:23:17;2.90;;;1.90;;
49858;SDS011;35756;52.346;13.622;2022-09-03T00:25:47;3.97;;;2.00;;
49858;SDS011;35756;52.346;13.622;2022-09-03T00:28:23;2.65;;;1.80;;
49858;SDS011;35756;52.346;13.622;2022-09-03T00:30:59;2.00;;;1.70;;
49858;SDS011;35756;52.346;13.622;2022-09-03T00:33:31;2.58;;;1.80;;
49858;SDS011;35756;52.346;13.622;2022-09-03T00:38:24;2.40;;;1.90;;
49858;SDS011;35756;52.346;13.622;2022-09-03T00:40:58;2.88;;;1.70;;
49858;SDS011;35756;52.346;13.622;2022-09-03T00:46:25;2.38;;;1.77;;
49858;SDS011;35756;52.346;13.622;2022-09-03T00:49:12;3.45;;;1.98;;
49858;SDS011;35756;52.346;13.622;2022-09-03T00:51:50;3.60;;;1.90;;
49858;SDS011;35756;52.346;13.622;2022-09-03T00:54:31;5.07;;;1.80;;
49858;SDS011;35756;52.346;13.622;2022-09-03T00:57:18;3.63;;;1.90;;
49858;SDS011;35756;52.346;13.622;2022-09-03T01:00:00;2.47;;;1.90;;
49858;SDS011;35756;52.346;13.622;2022-09-03T01:02:50;2.25;;;1.80;;
49858;SDS011;35756;52.346;13.622;2022-09-03T01:05:27;2.35;;;1.70;;
49858;SDS011;35756;52.346;13.622;2022-09-03T01:08:04;3.13;;;2.10;;
49858;SDS011;35756;52.346;13.622;2022-09-03T01:10:50;2.55;;;1.90;;
49858;SDS011;35756;52.346;13.622;2022-09-03T01:13:22;3.58;;;1.77;;
49858;SDS011;35756;52.346;13.622;2022-09-03T01:18:58;3.92;;;1.67;;
49858;SDS011;35756;52.346;13.622;2022-09-03T01:30:03;3.05;;;1.90;;
49858;SDS011;35756;52.346;13.622;2022-09-03T01:41:24;3.17;;;2.13;;
49858;SDS011;35756;52.346;13.622;2022-09-03T01:44:29;3.63;;;1.92;;
49858;SDS011;35756;52.346;13.622;2022-09-03T01:49:57;2.53;;;1.83;;
49858;SDS011;35756;52.346;13.622;2022-09-03T01:58:11;2.78;;;2.00;;
49858;SDS011;35756;52.346;13.622;2022-09-03T02:00:40;4.00;;;1.90;;
49858;SDS011;35756;52.346;13.622;2022-09-03T02:03:07;4.60;;;2.10;;
49858;SDS011;35756;52.346;13.622;2022-09-03T02:05:34;5.60;;;2.50;;
49858;SDS011;35756;52.346;13.622;2022-09-03T02:08:06;2.40;;;1.73;;
49858;SDS011;35756;52.346;13.622;2022-09-03T02:10:37;3.65;;;1.95;;
49858;SDS011;35756;52.346;13.622;2022-09-03T02:13:07;4.70;;;2.10;;
49858;SDS011;35756;52.346;13.622;2022-09-03T02:15:35;2.83;;;2.00;;
49858;SDS011;35756;52.346;13.622;2022-09-03T02:18:04;4.05;;;2.10;;
49858;SDS011;35756;52.346;13.622;2022-09-03T02:20:30;4.18;;;2.10;;
49858;SDS011;35756;52.346;13.622;2022-09-03T02:22:56;2.53;;;2.00;;
49858;SDS011;35756;52.346;13.622;2022-09-03T02:25:22;2.97;;;2.00;;
49858;SDS011;35756;52.346;13.622;2022-09-03T02:27:50;3.10;;;2.00;;
49858;SDS011;35756;52.346;13.622;2022-09-03T02:30:15;3.60;;;1.80;;
49858;SDS011;35756;52.346;13.622;2022-09-03T02:32:42;6.38;;;2.10;;
49858;SDS011;35756;52.346;13.622;2022-09-03T02:35:07;3.33;;;2.10;;
49858;SDS011;35756;52.346;13.622;2022-09-03T02:37:33;4.30;;;1.80;;
49858;SDS011;35756;52.346;13.622;2022-09-03T02:39:58;4.30;;;1.95;;
49858;SDS011;35756;52.346;13.622;2022-09-03T02:42:24;3.28;;;2.17;;
49858;SDS011;35756;52.346;13.622;2022-09-03T02:44:53;4.30;;;2.20;;
49858;SDS011;35756;52.346;13.622;2022-09-03T02:47:36;5.20;;;2.20;;
49858;SDS011;35756;52.346;13.622;2022-09-03T02:50:02;4.68;;;1.92;;
49858;SDS011;35756;52.346;13.622;2022-09-03T02:52:27;2.58;;;1.88;;
49858;SDS011;35756;52.346;13.622;2022-09-03T02:54:53;4.72;;;2.17;;
49858;SDS011;35756;52.346;13.622;2022-09-03T02:57:18;4.25;;;1.75;;
49858;SDS011;35756;52.346;13.622;2022-09-03T02:59:43;3.60;;;2.00;;
49858;SDS011;35756;52.346;13.622;2022-09-03T03:02:10;3.83;;;2.00;;
49858;SDS011;35756;52.346;13.622;2022-09-03T03:04:36;2.47;;;1.88;;
49858;SDS011;35756;52.346;13.622;2022-09-03T03:07:02;2.35;;;1.90;;
49858;SDS011;35756;52.346;13.622;2022-09-03T03:09:27;3.10;;;1.88;;
49858;SDS011;35756;52.346;13.622;2022-09-03T03:11:52;2.42;;;1.75;;
49858;SDS011;35756;52.346;13.622;2022-09-03T03:14:19;2.63;;;1.70;;
49858;SDS011;35756;52.346;13.622;2022-09-03T03:16:44;3.83;;;1.85;;
49858;SDS011;35756;52.346;13.622;2022-09-03T03:19:10;5.75;;;1.85;;
49858;SDS011;35756;52.346;13.622;2022-09-03T03:21:35;2.95;;;1.85;;
49858;SDS011;35756;52.346;13.622;2022-09-03T03:24:01;4.18;;;2.00;;
49858;SDS011;35756;52.346;13.622;2022-09-03T03:26:27;3.15;;;1.95;;
49858;SDS011;35756;52.346;13.622;2022-09-03T03:28:56;3.25;;;1.90;;
49858;SDS011;35756;52.346;13.622;2022-09-03T03:31:23;3.53;;;1.98;;
49858;SDS011;35756;52.346;13.622;2022-09-03T03:33:52;3.05;;;1.70;;
49858;SDS011;35756;52.346;13.622;2022-09-03T03:36:18;2.28;;;1.80;;
49858;SDS011;35756;52.346;13.622;2022-09-03T03:38:44;3.20;;;1.90;;
49858;SDS011;35756;52.346;13.622;2022-09-03T03:41:13;2.75;;;1.80;;
49858;SDS011;35756;52.346;13.622;2022-09-03T03:43:39;1.95;;;1.70;;
49858;SDS011;35756;52.346;13.622;2022-09-03T03:46:05;3.65;;;2.17;;
49858;SDS011;35756;52.346;13.622;2022-09-03T03:48:30;3.90;;;1.98;;
49858;SDS011;35756;52.346;13.622;2022-09-03T03:50:59;2.30;;;1.70;;
49858;SDS011;35756;52.346;13.622;2022-09-03T03:53:29;2.90;;;1.90;;
49858;SDS011;35756;52.346;13.622;2022-09-03T03:55:55;4.03;;;2.22;;
49858;SDS011;35756;52.346;13.622;2022-09-03T03:58:22;3.17;;;1.90;;
49858;SDS011;35756;52.346;13.622;2022-09-03T04:00:48;3.20;;;1.80;;
49858;SDS011;35756;52.346;13.622;2022-09-03T04:03:14;3.05;;;2.08;;
49858;SDS011;35756;52.346;13.622;2022-09-03T04:05:39;2.90;;;2.03;;
49858;SDS011;35756;52.346;13.622;2022-09-03T04:08:04;3.78;;;1.90;;
49858;SDS011;35756;52.346;13.622;2022-09-03T04:10:30;3.17;;;1.98;;
49858;SDS011;35756;52.346;13.622;2022-09-03T04:12:55;3.63;;;2.00;;
49858;SDS011;35756;52.346;13.622;2022-09-03T04:15:21;3.92;;;2.03;;
49858;SDS011;35756;52.346;13.622;2022-09-03T04:17:46;3.05;;;1.92;;
49858;SDS011;35756;52.346;13.622;2022-09-03T04:20:11;3.88;;;2.03;;
49858;SDS011;35756;52.346;13.622;2022-09-03T04:22:37;3.50;;;1.88;;
49858;SDS011;35756;52.346;13.622;2022-09-03T04:25:02;3.33;;;1.75;;
49858;SDS011;35756;52.346;13.622;2022-09-03T04:27:27;3.75;;;2.08;;
49858;SDS011;35756;52.346;13.622;2022-09-03T04:29:53;3.65;;;2.08;;
49858;SDS011;35756;52.346;13.622;2022-09-03T04:32:18;3.78;;;2.00;;
49858;SDS011;35756;52.346;13.622;2022-09-03T04:35:02;3.15;;;1.80;;
49858;SDS011;35756;52.346;13.622;2022-09-03T04:37:27;4.35;;;2.10;;
49858;SDS011;35756;52.346;13.622;2022-09-03T04:39:53;4.28;;;2.40;;
49858;SDS011;35756;52.346;13.622;2022-09-03T04:42:18;3.40;;;2.05;;
49858;SDS011;35756;52.346;13.622;2022-09-03T04:44:43;3.60;;;2.30;;
49858;SDS011;35756;52.346;13.622;2022-09-03T04:47:09;5.05;;;2.50;;
49858;SDS011;35756;52.346;13.622;2022-09-03T04:49:34;3.33;;;2.00;;
49858;SDS011;35756;52.346;13.622;2022-09-03T04:51:59;2.67;;;1.98;;
49858;SDS011;35756;52.346;13.622;2022-09-03T04:54:25;3.55;;;2.20;;
49858;SDS011;35756;52.346;13.622;2022-09-03T04:56:50;2.90;;;2.15;;
49858;SDS011;35756;52.346;13.622;2022-09-03T04:59:15;2.72;;;2.13;;
49858;SDS011;35756;52.346;13.622;2022-09-03T05:01:41;3.83;;;2.33;;
49858;SDS011;35756;52.346;13.622;2022-09-03T05:04:07;4.57;;;2.40;;
49858;SDS011;35756;52.346;13.622;2022-09-03T05:06:33;4.03;;;2.60;;
49858;SDS011;35756;52.346;13.622;2022-09-03T05:08:59;3.30;;;2.28;;
49858;SDS011;35756;52.346;13.622;2022-09-03T05:11:25;3.40;;;2.38;;
49858;SDS011;35756;52.346;13.622;2022-09-03T05:13:52;2.80;;;2.30;;
49858;SDS011;35756;52.346;13.622;2022-09-03T05:16:19;3.47;;;2.30;;
49858;SDS011;35756;52.346;13.622;2022-09-03T05:18:45;3.80;;;2.38;;
49858;SDS011;35756;52.346;13.622;2022-09-03T05:21:12;4.30;;;2.50;;
49858;SDS011;35756;52.346;13.622;2022-09-03T05:23:39;3.80;;;2.45;;
49858;SDS011;35756;52.346;13.622;2022-09-03T05:26:08;4.05;;;2.35;;
49858;SDS011;35756;52.346;13.622;2022-09-03T05:28:35;3.72;;;2.35;;
49858;SDS011;35756;52.346;13.622;2022-09-03T05:31:02;4.35;;;2.20;;
49858;SDS011;35756;52.346;13.622;2022-09-03T05:33:31;3.58;;;2.45;;
49858;SDS011;35756;52.346;13.622;2022-09-03T05:36:01;4.53;;;2.50;;
49858;SDS011;35756;52.346;13.622;2022-09-03T05:38:27;4.22;;;2.35;;
49858;SDS011;35756;52.346;13.622;2022-09-03T05:40:52;4.88;;;2.60;;
49858;SDS011;35756;52.346;13.622;2022-09-03T05:43:17;4.32;;;2.38;;
49858;SDS011;35756;52.346;13.622;2022-09-03T05:45:44;4.30;;;2.75;;
49858;SDS011;35756;52.346;13.622;2022-09-03T05:48:09;3.53;;;2.20;;
49858;SDS011;35756;52.346;13.622;2022-09-03T05:50:34;3.75;;;2.33;;
49858;SDS011;35756;52.346;13.622;2022-09-03T05:52:59;3.88;;;2.42;;
49858;SDS011;35756;52.346;13.622;2022-09-03T05:55:25;3.30;;;2.47;;
49858;SDS011;35756;52.346;13.622;2022-09-03T05:57:52;2.42;;;2.15;;
49858;SDS011;35756;52.346;13.622;2022-09-03T06:00:17;3.85;;;2.33;;
49858;SDS011;35756;52.346;13.622;2022-09-03T06:02:48;3.97;;;2.33;;
49858;SDS011;35756;52.346;13.622;2022-09-03T06:05:14;5.35;;;2.53;;
49858;SDS011;35756;52.346;13.622;2022-09-03T06:07:40;9.63;;;2.88;;
49858;SDS011;35756;52.346;13.622;2022-09-03T06:10:06;3.55;;;2.47;;
49858;SDS011;35756;52.346;13.622;2022-09-03T06:12:31;3.25;;;2.30;;
49858;SDS011;35756;52.346;13.622;2022-09-03T06:14:57;4.30;;;2.45;;
49858;SDS011;35756;52.346;13.622;2022-09-03T06:17:22;3.40;;;2.45;;
49858;SDS011;35756;52.346;13.622;2022-09-03T06:19:48;4.40;;;2.60;;
49858;SDS011;35756;52.346;13.622;2022-09-03T06:22:13;4.32;;;2.90;;
49858;SDS011;35756;52.346;13.622;2022-09-03T06:24:38;4.70;;;2.63;;
49858;SDS011;35756;52.346;13.622;2022-09-03T06:27:04;5.00;;;2.38;;
49858;SDS011;35756;52.346;13.622;2022-09-03T06:29:29;5.97;;;2.50;;
49858;SDS011;35756;52.346;13.622;2022-09-03T06:31:54;3.50;;;2.60;;
49858;SDS011;35756;52.346;13.622;2022-09-03T06:34:20;4.47;;;2.25;;
49858;SDS011;35756;52.346;13.622;2022-09-03T06:36:46;3.45;;;2.42;;
49858;SDS011;35756;52.346;13.622;2022-09-03T06:39:11;4.47;;;2.60;;
49858;SDS011;35756;52.346;13.622;2022-09-03T06:41:37;4.43;;;2.42;;
49858;SDS011;35756;52.346;13.622;2022-09-03T06:44:05;3.88;;;2.30;;
49858;SDS011;35756;52.346;13.622;2022-09-03T06:46:35;5.68;;;2.90;;
49858;SDS011;35756;52.346;13.622;2022-09-03T06:49:02;3.55;;;2.28;;
49858;SDS011;35756;52.346;13.622;2022-09-03T06:51:28;3.80;;;2.45;;
49858;SDS011;35756;52.346;13.622;2022-09-03T06:54:02;4.05;;;2.35;;
49858;SDS011;35756;52.346;13.622;2022-09-03T06:56:30;3.65;;;2.42;;
49858;SDS011;35756;52.346;13.622;2022-09-03T06:58:57;3.42;;;2.30;;
49858;SDS011;35756;52.346;13.622;2022-09-03T07:01:24;8.77;;;2.72;;
49858;SDS011;35756;52.346;13.622;2022-09-03T07:03:52;3.40;;;2.40;;
49858;SDS011;35756;52.346;13.622;2022-09-03T07:06:20;4.25;;;2.60;;
49858;SDS011;35756;52.346;13.622;2022-09-03T07:08:45;3.88;;;2.33;;
49858;SDS011;35756;52.346;13.622;2022-09-03T07:11:12;4.25;;;2.40;;
49858;SDS011;35756;52.346;13.622;2022-09-03T07:13:41;4.97;;;2.45;;
49858;SDS011;35756;52.346;13.622;2022-09-03T07:16:19;4.30;;;2.67;;
49858;SDS011;35756;52.346;13.622;2022-09-03T07:18:45;4.97;;;2.70;;
49858;SDS011;35756;52.346;13.622;2022-09-03T07:21:12;4.10;;;2.65;;
49858;SDS011;35756;52.346;13.622;2022-09-03T07:23:39;3.83;;;2.47;;
49858;SDS011;35756;52.346;13.622;2022-09-03T07:26:26;3.47;;;2.25;;
49858;SDS011;35756;52.346;13.622;2022-09-03T07:28:52;2.92;;;2.22;;
49858;SDS011;35756;52.346;13.622;2022-09-03T07:31:19;4.55;;;2.70;;
49858;SDS011;35756;52.346;13.622;2022-09-03T07:33:49;4.78;;;2.50;;
49858;SDS011;35756;52.346;13.622;2022-09-03T07:36:15;5.30;;;2.55;;
49858;SDS011;35756;52.346;13.622;2022-09-03T07:38:41;3.50;;;2.28;;
49858;SDS011;35756;52.346;13.622;2022-09-03T07:41:08;4.10;;;2.30;;
49858;SDS011;35756;52.346;13.622;2022-09-03T07:43:35;3.78;;;2.25;;
49858;SDS011;35756;52.346;13.622;2022-09-03T07:46:03;3.35;;;2.50;;
49858;SDS011;35756;52.346;13.622;2022-09-03T07:48:28;2.97;;;2.15;;
49858;SDS011;35756;52.346;13.622;2022-09-03T07:50:57;4.30;;;2.40;;
49858;SDS011;35756;52.346;13.622;2022-09-03T07:53:24;3.33;;;2.30;;
49858;SDS011;35756;52.346;13.622;2022-09-03T07:55:50;5.72;;;2.60;;
49858;SDS011;35756;52.346;13.622;2022-09-03T07:58:15;2.65;;;1.98;;
49858;SDS011;35756;52.346;13.622;2022-09-03T08:00:41;3.25;;;2.10;;
49858;SDS011;35756;52.346;13.622;2022-09-03T08:03:07;5.10;;;2.22;;
49858;SDS011;35756;52.346;13.622;2022-09-03T08:05:34;3.60;;;2.28;;
49858;SDS011;35756;52.346;13.622;2022-09-03T08:08:00;4.15;;;2.30;;
49858;SDS011;35756;52.346;13.622;2022-09-03T08:10:26;2.50;;;1.83;;
49858;SDS011;35756;52.346;13.622;2022-09-03T08:12:54;2.97;;;2.10;;
49858;SDS011;35756;52.346;13.622;2022-09-03T08:15:20;4.05;;;2.10;;
49858;SDS011;35756;52.346;13.622;2022-09-03T08:17:45;4.65;;;2.20;;
49858;SDS011;35756;52.346;13.622;2022-09-03T08:20:10;3.22;;;2.03;;
49858;SDS011;35756;52.346;13.622;2022-09-03T08:22:35;4.95;;;2.33;;
49858;SDS011;35756;52.346;13.622;2022-09-03T08:25:01;4.85;;;2.40;;
49858;SDS011;35756;52.346;13.622;2022-09-03T08:27:27;3.20;;;2.13;;
49858;SDS011;35756;52.346;13.622;2022-09-03T08:29:53;3.53;;;2.17;;
49858;SDS011;35756;52.346;13.622;2022-09-03T08:32:18;4.40;;;2.15;;
49858;SDS011;35756;52.346;13.622;2022-09-03T08:34:43;3.08;;;2.22;;
49858;SDS011;35756;52.346;13.622;2022-09-03T08:37:09;4.15;;;2.13;;
49858;SDS011;35756;52.346;13.622;2022-09-03T08:39:34;4.38;;;2.10;;
49858;SDS011;35756;52.346;13.622;2022-09-03T08:44:56;6.40;;;2.05;;
49858;SDS011;35756;52.346;13.622;2022-09-03T08:48:08;3.60;;;1.98;;
49858;SDS011;35756;52.346;13.622;2022-09-03T08:53:14;3.33;;;2.20;;
49858;SDS011;35756;52.346;13.622;2022-09-03T08:55:49;4.65;;;2.25;;
49858;SDS011;35756;52.346;13.622;2022-09-03T08:58:17;3.35;;;2.00;;
49858;SDS011;35756;52.346;13.622;2022-09-03T09:01:00;5.00;;;2.10;;
49858;SDS011;35756;52.346;13.622;2022-09-03T09:03:32;4.45;;;2.40;;
49858;SDS011;35756;52.346;13.622;2022-09-03T09:06:07;3.33;;;2.13;;
49858;SDS011;35756;52.346;13.622;2022-09-03T09:11:49;4.40;;;2.03;;
49858;SDS011;35756;52.346;13.622;2022-09-03T09:14:39;4.07;;;1.88;;
49858;SDS011;35756;52.346;13.622;2022-09-03T09:17:17;3.72;;;1.98;;
49858;SDS011;35756;52.346;13.622;2022-09-03T09:19:56;3.35;;;1.92;;
49858;SDS011;35756;52.346;13.622;2022-09-03T09:22:29;4.05;;;2.08;;
49858;SDS011;35756;52.346;13.622;2022-09-03T09:25:00;3.20;;;2.00;;
49858;SDS011;35756;52.346;13.622;2022-09-03T09:27:29;2.85;;;1.80;;
49858;SDS011;35756;52.346;13.622;2022-09-03T09:29:56;3.97;;;1.90;;
49858;SDS011;35756;52.346;13.622;2022-09-03T09:32:25;2.67;;;1.92;;
49858;SDS011;35756;52.346;13.622;2022-09-03T09:34:51;4.72;;;1.77;;
49858;SDS011;35756;52.346;13.622;2022-09-03T09:37:18;2.30;;;1.70;;
49858;SDS011;35756;52.346;13.622;2022-09-03T09:39:57;2.72;;;1.73;;
49858;SDS011;35756;52.346;13.622;2022-09-03T09:42:24;3.80;;;1.77;;
49858;SDS011;35756;52.346;13.622;2022-09-03T09:44:49;2.90;;;1.80;;
49858;SDS011;35756;52.346;13.622;2022-09-03T09:47:24;4.40;;;1.88;;
49858;SDS011;35756;52.346;13.622;2022-09-03T09:49:53;3.50;;;1.80;;
49858;SDS011;35756;52.346;13.622;2022-09-03T09:52:20;2.83;;;1.75;;
49858;SDS011;35756;52.346;13.622;2022-09-03T09:54:49;2.72;;;1.60;;
49858;SDS011;35756;52.346;13.622;2022-09-03T09:57:16;3.33;;;1.67;;
49858;SDS011;35756;52.346;13.622;2022-09-03T09:59:45;3.25;;;1.52;;
49858;SDS011;35756;52.346;13.622;2022-09-03T10:02:13;2.22;;;1.42;;
49858;SDS011;35756;52.346;13.622;2022-09-03T10:04:44;2.75;;;1.65;;
49858;SDS011;35756;52.346;13.622;2022-09-03T10:07:17;3.58;;;1.85;;
49858;SDS011;35756;52.346;13.622;2022-09-03T10:10:03;6.65;;;1.75;;
49858;SDS011;35756;52.346;13.622;2022-09-03T10:12:42;3.00;;;1.77;;
49858;SDS011;35756;52.346;13.622;2022-09-03T10:15:24;2.17;;;1.50;;
49858;SDS011;35756;52.346;13.622;2022-09-03T10:17:59;2.97;;;2.08;;
49858;SDS011;35756;52.346;13.622;2022-09-03T10:23:23;4.30;;;1.40;;
49858;SDS011;35756;52.346;13.622;2022-09-03T10:25:54;3.25;;;1.90;;
49858;SDS011;35756;52.346;13.622;2022-09-03T10:28:23;3.38;;;1.70;;
49858;SDS011;35756;52.346;13.622;2022-09-03T10:30:58;3.03;;;1.40;;
49858;SDS011;35756;52.346;13.622;2022-09-03T10:33:45;3.33;;;1.50;;
49858;SDS011;35756;52.346;13.622;2022-09-03T10:36:17;3.28;;;1.60;;
49858;SDS011;35756;52.346;13.622;2022-09-03T10:39:38;2.15;;;1.35;;
49858;SDS011;35756;52.346;13.622;2022-09-03T10:44:59;3.53;;;1.50;;
49858;SDS011;35756;52.346;13.622;2022-09-03T10:47:39;3.17;;;1.35;;
49858;SDS011;35756;52.346;13.622;2022-09-03T10:53:04;5.97;;;1.73;;
49858;SDS011;35756;52.346;13.622;2022-09-03T10:58:13;5.22;;;1.60;;
49858;SDS011;35756;52.346;13.622;2022-09-03T11:00:51;1.85;;;1.45;;
49858;SDS011;35756;52.346;13.622;2022-09-03T11:05:54;2.45;;;1.48;;
49858;SDS011;35756;52.346;13.622;2022-09-03T11:08:24;2.92;;;1.38;;
49858;SDS011;35756;52.346;13.622;2022-09-03T11:10:58;4.60;;;1.48;;
49858;SDS011;35756;52.346;13.622;2022-09-03T11:13:32;1.83;;;1.40;;
49858;SDS011;35756;52.346;13.622;2022-09-03T11:16:01;9.15;;;1.90;;
49858;SDS011;35756;52.346;13.622;2022-09-03T11:18:34;3.60;;;1.73;;
49858;SDS011;35756;52.346;13.622;2022-09-03T11:21:04;2.95;;;1.60;;
49858;SDS011;35756;52.346;13.622;2022-09-03T11:23:35;3.90;;;1.70;;
49858;SDS011;35756;52.346;13.622;2022-09-03T11:26:04;3.10;;;1.50;;
49858;SDS011;35756;52.346;13.622;2022-09-03T11:31:19;4.03;;;1.95;;
49858;SDS011;35756;52.346;13.622;2022-09-03T11:36:48;2.05;;;1.70;;
49858;SDS011;35756;52.346;13.622;2022-09-03T11:39:17;3.33;;;1.50;;
49858;SDS011;35756;52.346;13.622;2022-09-03T11:41:44;2.47;;;1.60;;
49858;SDS011;35756;52.346;13.622;2022-09-03T11:44:21;4.03;;;1.83;;
49858;SDS011;35756;52.346;13.622;2022-09-03T11:46:54;1.60;;;1.50;;
49858;SDS011;35756;52.346;13.622;2022-09-03T11:49:30;4.65;;;1.95;;
49858;SDS011;35756;52.346;13.622;2022-09-03T11:51:58;3.67;;;1.73;;
49858;SDS011;35756;52.346;13.622;2022-09-03T11:54:25;2.83;;;1.80;;
49858;SDS011;35756;52.346;13.622;2022-09-03T11:59:47;3.78;;;1.70;;
49858;SDS011;35756;52.346;13.622;2022-09-03T12:02:17;4.50;;;1.60;;
49858;SDS011;35756;52.346;13.622;2022-09-03T12:04:50;4.38;;;1.80;;
49858;SDS011;35756;52.346;13.622;2022-09-03T12:07:40;3.45;;;1.85;;
49858;SDS011;35756;52.346;13.622;2022-09-03T12:13:18;4.00;;;1.70;;
49858;SDS011;35756;52.346;13.622;2022-09-03T12:18:21;3.75;;;2.08;;
49858;SDS011;35756;52.346;13.622;2022-09-03T12:23:27;2.95;;;1.92;;
49858;SDS011;35756;52.346;13.622;2022-09-03T12:26:16;2.10;;;1.70;;
49858;SDS011;35756;52.346;13.622;2022-09-03T12:29:01;6.10;;;2.10;;
49858;SDS011;35756;52.346;13.622;2022-09-03T12:31:30;3.88;;;1.85;;
49858;SDS011;35756;52.346;13.622;2022-09-03T12:34:02;2.20;;;1.63;;
49858;SDS011;35756;52.346;13.622;2022-09-03T12:36:48;2.58;;;1.90;;
49858;SDS011;35756;52.346;13.622;2022-09-03T12:41:59;2.40;;;1.63;;
49858;SDS011;35756;52.346;13.622;2022-09-03T12:49:42;4.72;;;2.20;;
49858;SDS011;35756;52.346;13.622;2022-09-03T12:52:19;3.10;;;2.03;;
49858;SDS011;35756;52.346;13.622;2022-09-03T12:57:54;5.72;;;2.13;;
49858;SDS011;35756;52.346;13.622;2022-09-03T13:00:26;3.42;;;1.85;;
49858;SDS011;35756;52.346;13.622;2022-09-03T13:02:58;4.10;;;1.88;;
49858;SDS011;35756;52.346;13.622;2022-09-03T13:05:30;2.30;;;1.70;;
49858;SDS011;35756;52.346;13.622;2022-09-03T13:07:59;3.55;;;1.80;;
49858;SDS011;35756;52.346;13.622;2022-09-03T13:10:32;4.90;;;1.90;;
49858;SDS011;35756;52.346;13.622;2022-09-03T13:13:02;2.78;;;2.03;;
49858;SDS011;35756;52.346;13.622;2022-09-03T13:15:39;3.58;;;2.00;;
49858;SDS011;35756;52.346;13.622;2022-09-03T13:21:02;3.42;;;1.80;;
49858;SDS011;35756;52.346;13.622;2022-09-03T13:23:52;3.50;;;2.13;;
49858;SDS011;35756;52.346;13.622;2022-09-03T13:31:59;2.20;;;1.80;;
49858;SDS011;35756;52.346;13.622;2022-09-03T13:34:32;4.00;;;2.00;;
49858;SDS011;35756;52.346;13.622;2022-09-03T13:37:08;2.30;;;1.90;;
49858;SDS011;35756;52.346;13.622;2022-09-03T13:39:54;2.72;;;1.90;;
49858;SDS011;35756;52.346;13.622;2022-09-03T13:44:58;2.70;;;1.90;;
49858;SDS011;35756;52.346;13.622;2022-09-03T13:52:51;3.92;;;1.90;;
49858;SDS011;35756;52.346;13.622;2022-09-03T13:55:23;4.38;;;2.15;;
49858;SDS011;35756;52.346;13.622;2022-09-03T13:57:56;5.35;;;2.03;;
49858;SDS011;35756;52.346;13.622;2022-09-03T14:00:33;3.25;;;2.10;;
49858;SDS011;35756;52.346;13.622;2022-09-03T14:03:05;3.20;;;2.13;;
49858;SDS011;35756;52.346;13.622;2022-09-03T14:05:40;4.00;;;1.90;;
49858;SDS011;35756;52.346;13.622;2022-09-03T14:08:31;4.47;;;2.07;;
49858;SDS011;35756;52.346;13.622;2022-09-03T14:11:06;4.65;;;2.20;;
49858;SDS011;35756;52.346;13.622;2022-09-03T14:22:24;4.30;;;2.20;;
49858;SDS011;35756;52.346;13.622;2022-09-03T14:25:03;3.42;;;2.55;;
49858;SDS011;35756;52.346;13.622;2022-09-03T14:27:33;5.00;;;2.40;;
49858;SDS011;35756;52.346;13.622;2022-09-03T14:30:15;6.22;;;2.70;;
49858;SDS011;35756;52.346;13.622;2022-09-03T14:33:12;4.05;;;2.50;;
49858;SDS011;35756;52.346;13.622;2022-09-03T14:35:51;5.10;;;2.30;;
49858;SDS011;35756;52.346;13.622;2022-09-03T14:38:30;4.93;;;2.38;;
49858;SDS011;35756;52.346;13.622;2022-09-03T14:52:18;6.72;;;2.40;;
49858;SDS011;35756;52.346;13.622;2022-09-03T14:57:29;3.65;;;2.08;;
49858;SDS011;35756;52.346;13.622;2022-09-03T15:05:41;3.33;;;2.30;;
49858;SDS011;35756;52.346;13.622;2022-09-03T15:08:18;6.47;;;2.55;;
49858;SDS011;35756;52.346;13.622;2022-09-03T15:11:11;5.53;;;2.35;;
49858;SDS011;35756;52.346;13.622;2022-09-03T15:19:03;3.45;;;2.22;;
49858;SDS011;35756;52.346;13.622;2022-09-03T15:22:16;3.08;;;2.40;;
49858;SDS011;35756;52.346;13.622;2022-09-03T15:30:23;4.25;;;2.40;;
49858;SDS011;35756;52.346;13.622;2022-09-03T15:33:10;7.20;;;2.42;;
49858;SDS011;35756;52.346;13.622;2022-09-03T15:38:54;4.03;;;2.55;;
49858;SDS011;35756;52.346;13.622;2022-09-03T15:41:30;5.68;;;2.65;;
49858;SDS011;35756;52.346;13.622;2022-09-03T15:43:59;5.43;;;2.50;;
49858;SDS011;35756;52.346;13.622;2022-09-03T15:46:32;5.07;;;2.50;;
49858;SDS011;35756;52.346;13.622;2022-09-03T15:49:05;5.32;;;2.22;;
49858;SDS011;35756;52.346;13.622;2022-09-03T15:54:45;3.53;;;2.40;;
49858;SDS011;35756;52.346;13.622;2022-09-03T15:57:16;5.57;;;2.42;;
49858;SDS011;35756;52.346;13.622;2022-09-03T16:02:30;3.67;;;2.40;;
49858;SDS011;35756;52.346;13.622;2022-09-03T16:08:16;3.50;;;2.05;;
49858;SDS011;35756;52.346;13.622;2022-09-03T16:10:20;3.60;;;2.22;;
49858;SDS011;35756;52.346;13.622;2022-09-03T16:15:43;6.57;;;2.53;;
49858;SDS011;35756;52.346;13.622;2022-09-03T16:20:58;2.92;;;2.08;;
49858;SDS011;35756;52.346;13.622;2022-09-03T16:26:11;4.43;;;2.42;;
49858;SDS011;35756;52.346;13.622;2022-09-03T16:28:58;4.38;;;2.15;;
49858;SDS011;35756;52.346;13.622;2022-09-03T16:37:21;4.40;;;2.40;;
49858;SDS011;35756;52.346;13.622;2022-09-03T16:39:59;4.88;;;2.45;;
49858;SDS011;35756;52.346;13.622;2022-09-03T16:42:39;5.05;;;2.60;;
49858;SDS011;35756;52.346;13.622;2022-09-03T16:48:23;6.30;;;3.00;;
49858;SDS011;35756;52.346;13.622;2022-09-03T16:53:45;4.25;;;2.58;;
49858;SDS011;35756;52.346;13.622;2022-09-03T16:59:41;3.50;;;2.28;;
49858;SDS011;35756;52.346;13.622;2022-09-03T17:04:55;4.03;;;2.50;;
49858;SDS011;35756;52.346;13.622;2022-09-03T17:10:26;6.80;;;2.60;;
49858;SDS011;35756;52.346;13.622;2022-09-03T17:13:10;4.22;;;2.58;;
49858;SDS011;35756;52.346;13.622;2022-09-03T17:35:15;4.80;;;2.78;;
49858;SDS011;35756;52.346;13.622;2022-09-03T17:37:54;4.07;;;2.63;;
49858;SDS011;35756;52.346;13.622;2022-09-03T17:41:24;6.15;;;2.70;;
49858;SDS011;35756;52.346;13.622;2022-09-03T17:43:45;4.63;;;2.60;;
49858;SDS011;35756;52.346;13.622;2022-09-03T17:46:19;3.78;;;2.65;;
49858;SDS011;35756;52.346;13.622;2022-09-03T17:48:53;6.55;;;3.05;;
49858;SDS011;35756;52.346;13.622;2022-09-03T17:51:38;6.15;;;2.80;;
49858;SDS011;35756;52.346;13.622;2022-09-03T17:56:53;4.63;;;2.83;;
49858;SDS011;35756;52.346;13.622;2022-09-03T17:59:28;4.57;;;2.40;;
49858;SDS011;35756;52.346;13.622;2022-09-03T18:02:17;4.20;;;2.50;;
49858;SDS011;35756;52.346;13.622;2022-09-03T18:04:59;4.28;;;2.90;;
49858;SDS011;35756;52.346;13.622;2022-09-03T18:08:00;5.13;;;2.78;;
49858;SDS011;35756;52.346;13.622;2022-09-03T18:16:26;4.30;;;2.80;;
49858;SDS011;35756;52.346;13.622;2022-09-03T18:18:52;4.53;;;2.60;;
49858;SDS011;35756;52.346;13.622;2022-09-03T18:21:53;4.47;;;2.88;;
49858;SDS011;35756;52.346;13.622;2022-09-03T18:27:45;4.03;;;2.78;;
49858;SDS011;35756;52.346;13.622;2022-09-03T18:30:30;3.60;;;2.38;;
49858;SDS011;35756;52.346;13.622;2022-09-03T18:33:16;5.47;;;2.83;;
49858;SDS011;35756;52.346;13.622;2022-09-03T18:36:00;5.00;;;2.85;;
49858;SDS011;35756;52.346;13.622;2022-09-03T18:38:44;7.05;;;2.67;;
49858;SDS011;35756;52.346;13.622;2022-09-03T18:44:38;3.85;;;2.63;;